Time;durP1;ratioP1;P1;durP2;ratioP2;P2;SDS_P1;SDS_P2;PMS_P1;PMS_P2;Temp;Humidity;BMP_temperature;BMP_pressure;BME280_temperature;BME280_humidity;BME280_pressure;Samples;Min_cycle;Max_cycle;Signal;HPM_P1;HPM_P2
2022/01/21 00:00:17;;;;;;;18.48;5.10;;;;;;;-2.71;100.00;94089.00;2098889;28;20103;-79
2022/01/21 00:01:20;;;;;;;17.20;4.97;;;;;;;-2.58;100.00;94080.22;2098011;28;20123;-80
2022/01/21 00:02:23;;;;;;;8.45;4.88;;;;;;;-2.67;100.00;94080.22;2107126;27;20031;-79
2022/01/21 00:03:24;;;;;;;12.98;5.47;;;;;;;-2.61;100.00;94080.84;2115378;27;20026;-79
2022/01/21 00:04:25;;;;;;;16.77;4.90;;;;;;;-2.71;100.00;94084.53;2114492;28;20028;-79
2022/01/21 00:05:26;;;;;;;15.32;5.00;;;;;;;-2.61;100.00;94083.44;2115113;28;20437;-79
2022/01/21 00:06:27;;;;;;;13.88;5.47;;;;;;;-2.43;100.00;94081.59;2106643;28;20032;-79
2022/01/21 00:07:28;;;;;;;14.25;5.68;;;;;;;-2.59;100.00;94087.31;2106561;28;20027;-79
2022/01/21 00:08:29;;;;;;;18.60;5.15;;;;;;;-2.58;100.00;94083.59;2106568;28;20020;-79
2022/01/21 00:09:30;;;;;;;20.95;5.30;;;;;;;-2.67;100.00;94093.31;2106519;28;20020;-79
2022/01/21 00:10:36;;;;;;;15.75;4.40;;;;;;;-2.58;100.00;94091.47;2114873;28;20843;-79
2022/01/21 00:11:39;;;;;;;14.77;4.40;;;;;;;-2.71;100.00;94094.25;2115467;27;20484;-80
2022/01/21 00:12:40;;;;;;;8.32;4.03;;;;;;;-2.58;100.00;94088.09;2106937;28;20111;-79
2022/01/21 00:13:41;;;;;;;17.88;5.35;;;;;;;-2.62;100.00;94089.78;2106651;28;20024;-78
2022/01/21 00:14:47;;;;;;;15.25;5.18;;;;;;;-2.72;100.00;94090.84;2107822;28;20059;-79
2022/01/21 00:15:49;;;;;;;12.30;5.00;;;;;;;-2.76;100.00;94081.31;2098971;28;20136;-79
2022/01/21 00:16:50;;;;;;;11.65;4.93;;;;;;;-2.70;100.00;94080.06;2098536;28;20056;-79
2022/01/21 00:17:51;;;;;;;15.75;5.50;;;;;;;-2.62;100.00;94080.06;2114962;28;20114;-79
2022/01/21 00:19:06;;;;;;;15.75;5.07;;;;;;;-2.70;100.00;94077.44;2106740;28;20606;-78
2022/01/21 00:30:58;;;;;;;9.05;4.30;;;;;;;-3.05;100.00;94082.66;2115611;28;20460;-80
2022/01/21 00:31:59;;;;;;;18.58;5.15;;;;;;;-3.14;100.00;94085.25;2106316;28;20036;-79
2022/01/21 00:33:00;;;;;;;13.85;4.95;;;;;;;-3.10;100.00;94080.97;2106183;28;20427;-79
2022/01/21 00:34:01;;;;;;;16.73;4.95;;;;;;;-3.22;100.00;94085.25;2097823;28;20021;-79
2022/01/21 00:35:04;;;;;;;10.85;4.65;;;;;;;-3.07;100.00;94092.66;2098254;28;20029;-80
2022/01/21 00:36:05;;;;;;;12.68;4.78;;;;;;;-3.23;100.00;94092.31;2098388;28;20032;-79
2022/01/21 00:37:06;;;;;;;13.50;4.63;;;;;;;-3.24;100.00;94087.41;2106570;28;20028;-80
2022/01/21 00:38:07;;;;;;;11.63;4.30;;;;;;;-3.26;100.00;94082.47;2106440;28;20546;-79
2022/01/21 00:39:12;;;;;;;14.25;4.53;;;;;;;-3.20;100.00;94091.72;2106564;28;20108;-79
2022/01/21 00:40:23;;;;;;;23.25;4.43;;;;;;;-3.24;100.00;94093.41;2114920;28;20542;-79
2022/01/21 00:41:30;;;;;;;18.70;5.13;;;;;;;-3.38;100.00;94087.50;2106432;28;20493;-78
2022/01/21 00:43:43;;;;;;;8.07;4.00;;;;;;;-3.34;100.00;94086.59;2106655;28;20036;-79
2022/01/21 00:44:44;;;;;;;12.73;4.88;;;;;;;-3.39;100.00;94083.34;2116454;27;20066;-79
2022/01/21 00:45:45;;;;;;;15.63;5.00;;;;;;;-3.24;100.00;94082.94;2106448;28;20093;-78
2022/01/21 00:46:48;;;;;;;18.15;5.13;;;;;;;-3.26;100.00;94085.06;2098135;28;20035;-79
2022/01/21 00:47:49;;;;;;;13.52;4.38;;;;;;;-2.88;100.00;94081.91;2106801;28;20027;-79
2022/01/21 00:48:50;;;;;;;11.93;4.18;;;;;;;-3.16;100.00;94082.19;2106518;28;20460;-79
2022/01/21 00:49:51;;;;;;;19.63;4.30;;;;;;;-3.21;100.00;94086.78;2089704;28;20116;-79
2022/01/21 00:50:53;;;;;;;12.13;4.30;;;;;;;-3.23;100.00;94081.84;2106095;28;20031;-79
2022/01/21 00:51:54;;;;;;;13.40;4.50;;;;;;;-3.21;100.00;94079.69;2114776;27;20032;-78
2022/01/21 00:52:55;;;;;;;10.52;4.10;;;;;;;-3.18;100.00;94075.72;2106386;28;20024;-80
2022/01/21 00:53:59;;;;;;;12.85;4.82;;;;;;;-3.35;100.00;94084.28;2105393;28;20032;-79
2022/01/21 00:55:00;;;;;;;13.77;4.55;;;;;;;-3.39;100.00;94088.56;2109671;27;20496;-79
2022/01/21 00:56:03;;;;;;;18.15;4.13;;;;;;;-3.19;100.00;94082.78;2109370;28;20036;-78
2022/01/21 00:57:05;;;;;;;14.82;4.45;;;;;;;-3.31;100.00;94083.38;2109270;27;20093;-79
2022/01/21 00:58:08;;;;;;;14.55;4.32;;;;;;;-3.19;100.00;94082.78;2113549;28;20031;-79
2022/01/21 00:59:12;;;;;;;11.40;4.32;;;;;;;-3.10;100.00;94078.34;2105375;28;20052;-79
2022/01/21 01:00:14;;;;;;;13.15;3.88;;;;;;;-3.22;100.00;94088.63;2105892;27;20031;-78
2022/01/21 01:01:15;;;;;;;14.93;4.35;;;;;;;-3.25;100.00;94081.38;2106415;28;20024;-79
2022/01/21 01:02:16;;;;;;;15.10;4.43;;;;;;;-3.26;100.00;94090.31;2106140;28;20027;-79
2022/01/21 01:03:19;;;;;;;8.65;4.15;;;;;;;-3.27;100.00;94080.94;2114342;28;20028;-79
2022/01/21 01:04:20;;;;;;;14.32;4.22;;;;;;;-3.32;100.00;94081.06;2114212;28;20051;-79
2022/01/21 01:05:21;;;;;;;12.07;4.32;;;;;;;-3.16;100.00;94090.03;2106186;28;20023;-79
2022/01/21 01:06:22;;;;;;;12.98;5.00;;;;;;;-3.19;100.00;94085.41;2122887;27;20390;-79
2022/01/21 01:07:23;;;;;;;14.30;3.75;;;;;;;-3.20;100.00;94083.09;2113809;28;20028;-78
2022/01/21 01:08:24;;;;;;;10.52;4.10;;;;;;;-3.06;100.00;94083.75;2114720;27;20073;-79
2022/01/21 01:09:25;;;;;;;18.48;5.78;;;;;;;-3.27;100.00;94085.38;2114453;28;20126;-79
2022/01/21 01:19:55;;;;;;;11.75;4.13;;;;;;;-3.25;100.00;94098.91;2088515;28;20043;-80
2022/01/21 01:21:01;;;;;;;13.63;3.80;;;;;;;-3.10;100.00;94091.41;2106070;28;20028;-79
2022/01/21 01:22:04;;;;;;;17.98;4.35;;;;;;;-2.99;100.00;94091.88;2097606;28;20025;-79
2022/01/21 01:23:22;;;;;;;11.23;3.60;;;;;;;-3.01;100.00;94090.66;2099712;28;20021;-79
2022/01/21 01:28:23;;;;;;;;;;;;;;;-3.07;100.00;94093.44;2106631;28;21000;-78
2022/01/21 01:29:25;;;;;;;7.05;3.28;;;;;;;-3.09;100.00;94092.94;2097635;28;19919;-79
2022/01/21 01:30:28;;;;;;;18.98;4.20;;;;;;;-3.06;100.00;94088.97;2106004;28;20024;-79
2022/01/21 01:31:30;;;;;;;12.90;3.72;;;;;;;-3.08;100.00;94091.09;2097870;28;20199;-79
2022/01/21 01:32:31;;;;;;;10.63;3.78;;;;;;;-3.17;100.00;94085.84;2097434;28;20029;-80
2022/01/21 01:33:38;;;;;;;12.52;4.22;;;;;;;-3.10;100.00;94091.41;2097564;28;20114;-79
2022/01/21 01:34:39;;;;;;;11.73;3.63;;;;;;;-2.99;100.00;94096.34;2090994;28;20033;-79
2022/01/21 01:35:40;;;;;;;14.68;4.10;;;;;;;-3.00;100.00;94087.75;2097670;28;20048;-80
2022/01/21 01:36:46;;;;;;;13.75;4.80;;;;;;;-3.04;100.00;94092.03;2097634;28;20031;-80
2022/01/21 01:40:18;;;;;;;14.75;3.95;;;;;;;-3.16;100.00;94097.88;2097589;28;20028;-78
2022/01/21 01:41:22;;;;;;;8.57;3.47;;;;;;;-3.16;100.00;94097.88;2091102;28;20029;-80
2022/01/21 01:49:36;;;;;;;11.13;4.07;;;;;;;-3.17;100.00;94085.09;2114048;28;20504;-80
2022/01/21 01:50:37;;;;;;;14.43;4.25;;;;;;;-3.18;100.00;94092.16;2105853;28;20397;-79
2022/01/21 01:51:38;;;;;;;11.05;4.00;;;;;;;-3.15;100.00;94088.97;2105707;28;20040;-78
2022/01/21 01:52:39;;;;;;;12.77;3.88;;;;;;;-3.01;100.00;94090.66;2105850;28;20035;-79
2022/01/21 01:53:59;;;;;;;13.13;4.18;;;;;;;-2.81;100.00;94095.28;2089239;28;20033;-78
2022/01/21 01:55:00;;;;;;;;;;;;;;;-2.93;100.00;94097.75;2086928;28;20084;-78
2022/01/21 01:56:06;;;;;;;11.85;3.70;;;;;;;-3.09;100.00;94092.94;2089197;28;19912;-79
2022/01/21 01:57:07;;;;;;;12.93;4.50;;;;;;;-3.03;100.00;94104.03;2090485;28;20028;-78
2022/01/21 01:58:12;;;;;;;13.13;3.55;;;;;;;-3.13;100.00;94104.31;2097801;28;20104;-80
2022/01/21 01:59:19;;;;;;;9.57;3.47;;;;;;;-3.17;100.00;94109.38;2106414;28;20024;-81
2022/01/21 02:00:24;;;;;;;11.63;3.92;;;;;;;-3.16;100.00;94112.78;2098324;28;20082;-80
2022/01/21 02:01:27;;;;;;;13.57;3.50;;;;;;;-3.24;100.00;94111.69;2090415;28;20021;-79
2022/01/21 02:02:28;;;;;;;11.00;3.63;;;;;;;-3.08;100.00;94104.94;2089707;28;20017;-80
2022/01/21 02:03:31;;;;;;;17.50;4.25;;;;;;;-3.25;100.00;94104.91;2097491;28;20300;-79
2022/01/21 02:04:37;;;;;;;14.48;3.72;;;;;;;-3.05;100.00;94109.56;2089816;28;20024;-79
2022/01/21 02:05:38;;;;;;;19.10;3.85;;;;;;;-3.14;100.00;94108.78;2090557;28;20029;-79
2022/01/21 02:06:39;;;;;;;15.80;3.75;;;;;;;-3.04;100.00;94113.72;2097561;28;20020;-81
2022/01/21 02:07:40;;;;;;;11.88;3.70;;;;;;;-3.21;100.00;94110.31;2097380;28;20366;-81
2022/01/21 02:10:33;;;;;;;8.55;3.70;;;;;;;-2.99;100.00;94110.19;2130520;27;20203;-80
2022/01/21 02:11:33;;;;;;;13.25;4.05;;;;;;;-3.08;100.00;94104.19;2112478;28;20024;-79
2022/01/21 02:12:35;;;;;;;8.02;3.85;;;;;;;-3.18;100.00;94107.09;2096164;28;20071;-80
2022/01/21 02:13:42;;;;;;;13.30;4.65;;;;;;;-3.22;100.00;94112.16;2096266;28;20075;-78
2022/01/21 02:14:49;;;;;;;12.70;4.53;;;;;;;-3.26;100.00;94105.97;2089651;28;20025;-80
2022/01/21 02:16:04;;;;;;;12.60;4.40;;;;;;;-3.30;100.00;94108.44;2097965;28;20032;-79
2022/01/21 02:22:24;;;;;;;11.25;4.10;;;;;;;-3.02;100.00;94110.81;2112729;28;20121;-79
2022/01/21 02:23:25;;;;;;;14.93;4.10;;;;;;;-3.17;100.00;94106.00;2109631;28;20016;-79
2022/01/21 02:24:35;;;;;;;19.75;4.07;;;;;;;-3.16;100.00;94103.09;2112933;28;20452;-79
2022/01/21 02:25:36;;;;;;;15.68;3.70;;;;;;;-3.23;100.00;94102.78;2105759;28;20055;-79
2022/01/21 02:26:37;;;;;;;9.68;4.70;;;;;;;-3.14;100.00;94102.78;2096223;28;20036;-79
2022/01/21 02:27:38;;;;;;;10.98;4.80;;;;;;;-3.24;100.00;94106.47;2104635;28;20069;-79
2022/01/21 02:28:42;;;;;;;10.45;3.45;;;;;;;-3.24;100.00;94093.41;2113012;28;20080;-79
2022/01/21 02:29:47;;;;;;;11.52;4.03;;;;;;;-3.40;100.00;94093.03;2104420;28;20066;-79
2022/01/21 02:30:55;;;;;;;9.27;3.75;;;;;;;-3.39;100.00;94088.56;2097169;28;20488;-80
2022/01/21 02:31:58;;;;;;;12.15;4.90;;;;;;;-3.40;100.00;94097.50;2105320;28;20020;-80
2022/01/21 02:32:59;;;;;;;12.35;4.05;;;;;;;-3.53;100.00;94088.69;2096329;28;20061;-79
2022/01/21 02:34:04;;;;;;;12.00;3.92;;;;;;;-3.51;100.00;94097.03;2104396;28;20139;-79
2022/01/21 02:35:11;;;;;;;15.13;4.43;;;;;;;-3.52;100.00;94099.91;2104918;28;20062;-79
2022/01/21 02:36:19;;;;;;;13.27;4.22;;;;;;;-3.55;100.00;94099.47;2112792;28;20076;-79
2022/01/21 02:37:27;;;;;;;11.85;4.15;;;;;;;-3.40;100.00;94098.25;2104351;28;20078;-80
2022/01/21 02:38:35;;;;;;;7.82;3.78;;;;;;;-3.43;100.00;94088.41;2098043;28;20100;-78
2022/01/21 02:39:42;;;;;;;14.88;4.07;;;;;;;-3.47;100.00;94094.53;2097038;28;20043;-79
2022/01/21 02:40:50;;;;;;;15.20;4.07;;;;;;;-3.43;100.00;94092.88;2096924;28;20119;-79
2022/01/21 02:41:59;;;;;;;11.93;3.70;;;;;;;-3.47;100.00;94091.94;2097825;28;20135;-79
2022/01/21 02:43:07;;;;;;;11.82;3.78;;;;;;;-3.49;100.00;94094.09;2097011;28;20058;-79
2022/01/21 02:44:18;;;;;;;17.77;3.92;;;;;;;-3.57;100.00;94093.75;2098013;28;20039;-79
2022/01/21 02:45:25;;;;;;;15.77;4.28;;;;;;;-3.64;100.00;94097.91;2104283;28;20024;-80
2022/01/21 02:46:37;;;;;;;11.55;4.75;;;;;;;-3.66;100.00;94090.34;2097945;28;20090;-79
2022/01/21 02:47:46;;;;;;;9.40;4.20;;;;;;;-3.53;100.00;94082.69;2104178;28;20470;-80
2022/01/21 02:48:54;;;;;;;10.75;3.85;;;;;;;-3.52;100.00;94081.63;2105686;28;20055;-78
2022/01/21 02:49:57;;;;;;;11.30;4.03;;;;;;;-3.56;100.00;94090.09;2109272;28;20805;-79
2022/01/21 02:51:10;;;;;;;9.68;3.42;;;;;;;-3.66;100.00;94090.34;2104217;28;20082;-80
2022/01/21 02:52:18;;;;;;;19.08;4.10;;;;;;;-3.60;100.00;94088.34;2105379;28;20054;-79
2022/01/21 02:53:40;;;;;;;12.20;3.72;;;;;;;-3.66;100.00;94092.19;2103884;28;20063;-80
2022/01/21 02:54:47;;;;;;;16.17;4.15;;;;;;;-3.76;100.00;94093.22;2101646;28;20024;-79
2022/01/21 02:55:55;;;;;;;11.70;4.13;;;;;;;-3.72;100.00;94088.94;2096558;28;20016;-79
2022/01/21 02:57:05;;;;;;;14.32;3.67;;;;;;;-3.58;100.00;94094.06;2096981;28;20123;-79
2022/01/21 02:58:10;;;;;;;;;;;;;;;-3.70;100.00;94094.63;2098950;28;20033;-79
2022/01/21 02:59:17;;;;;;;11.60;3.65;;;;;;;-3.58;100.00;94087.00;2104766;28;20126;-79
2022/01/21 03:00:25;;;;;;;15.60;3.80;;;;;;;-3.74;100.00;94087.69;2097415;28;20033;-79
2022/01/21 03:01:28;;;;;;;21.88;4.07;;;;;;;-3.75;100.00;94091.38;2105276;28;20107;-79
2022/01/21 03:02:36;;;;;;;11.73;4.25;;;;;;;-3.69;100.00;94085.72;2095664;28;20516;-78
2022/01/21 03:03:43;;;;;;;14.02;4.80;;;;;;;-3.80;100.00;94082.59;2099850;28;20044;-79
2022/01/21 03:05:04;;;;;;;12.38;3.95;;;;;;;-3.63;100.00;94094.97;2104960;28;20054;-78
2022/01/21 03:06:08;;;;;;;11.48;3.85;;;;;;;-3.69;100.00;94096.16;2104680;28;20531;-79
2022/01/21 03:07:15;;;;;;;11.32;3.65;;;;;;;-3.57;100.00;94083.28;2087875;28;20033;-79
2022/01/21 03:08:23;;;;;;;16.02;4.32;;;;;;;-3.72;100.00;94093.41;2081129;28;20435;-79
2022/01/21 03:09:31;;;;;;;9.80;4.00;;;;;;;-3.84;100.00;94086.88;2096480;28;20012;-79
2022/01/21 03:10:37;;;;;;;15.32;4.75;;;;;;;-3.86;100.00;94090.88;2096036;28;20393;-79
2022/01/21 03:11:45;;;;;;;12.65;4.00;;;;;;;-3.97;100.00;94092.97;2089018;28;20017;-79
2022/01/21 03:12:50;;;;;;;13.90;4.30;;;;;;;-4.02;100.00;94094.94;2097632;28;20028;-80
2022/01/21 03:13:56;;;;;;;16.77;3.95;;;;;;;-4.05;100.00;94086.63;2112447;28;20702;-79
2022/01/21 03:15:07;;;;;;;11.88;3.63;;;;;;;-4.13;100.00;94092.56;2095651;28;20025;-80
2022/01/21 03:16:12;;;;;;;10.10;3.80;;;;;;;-4.15;100.00;94083.50;2090880;28;20044;-78
2022/01/21 03:17:13;;;;;;;13.18;3.85;;;;;;;-4.14;100.00;94088.44;2105208;28;20496;-79
2022/01/21 03:18:15;;;;;;;12.10;4.70;;;;;;;-4.21;100.00;94097.78;2101500;28;20455;-80
2022/01/21 03:19:17;;;;;;;9.07;4.38;;;;;;;-4.13;100.00;94097.03;2088124;28;20107;-80
2022/01/21 03:20:19;;;;;;;13.25;4.88;;;;;;;-4.13;100.00;94104.84;2087475;28;20013;-80
2022/01/21 03:21:22;;;;;;;19.25;4.78;;;;;;;-4.20;100.00;94107.13;2085784;28;20481;-79
2022/01/21 03:22:28;;;;;;;10.60;4.60;;;;;;;-4.25;100.00;94110.63;2098365;28;20043;-78
2022/01/21 03:23:29;;;;;;;13.95;4.82;;;;;;;-4.29;100.00;94117.53;2090206;28;20029;-79
2022/01/21 03:24:31;;;;;;;10.35;3.85;;;;;;;-4.25;100.00;94115.84;2087269;28;20029;-79
2022/01/21 03:25:32;;;;;;;12.23;3.88;;;;;;;-4.34;100.00;94128.09;2090572;28;20028;-80
2022/01/21 03:26:33;;;;;;;11.70;4.82;;;;;;;-4.35;100.00;94127.28;2098258;28;20331;-80
2022/01/21 03:27:35;;;;;;;9.13;4.13;;;;;;;-4.31;100.00;94117.78;2093769;28;20162;-78
2022/01/21 03:28:38;;;;;;;8.93;4.03;;;;;;;-4.33;100.00;94122.56;2073911;28;20061;-79
2022/01/21 03:29:43;;;;;;;13.43;4.00;;;;;;;-4.23;100.00;94124.16;2074125;28;20025;-79
2022/01/21 03:30:51;;;;;;;11.52;4.15;;;;;;;-4.14;100.00;94119.75;2089998;28;20031;-80
2022/01/21 03:31:56;;;;;;;15.48;4.32;;;;;;;-4.29;100.00;94120.13;2090930;28;20109;-79
2022/01/21 03:33:04;;;;;;;15.18;4.00;;;;;;;-4.32;100.00;94118.09;2083217;28;20022;-79
2022/01/21 03:34:05;;;;;;;19.00;4.72;;;;;;;-4.48;100.00;94114.28;2091269;28;20086;-79
2022/01/21 03:35:08;;;;;;;14.65;4.28;;;;;;;-4.54;100.00;94115.50;2098434;28;20028;-79
2022/01/21 03:36:13;;;;;;;12.45;4.32;;;;;;;-4.65;100.00;94120.19;2098355;28;20020;-79
2022/01/21 03:37:13;;;;;;;18.08;4.75;;;;;;;-4.70;100.00;94120.28;2099026;28;20029;-78
2022/01/21 03:38:14;;;;;;;9.98;3.83;;;;;;;-4.67;100.00;94117.84;2098253;28;20485;-80
2022/01/21 03:39:16;;;;;;;18.17;4.88;;;;;;;-4.72;100.00;94114.59;2098131;28;20051;-79
2022/01/21 03:40:17;;;;;;;17.52;4.68;;;;;;;-4.73;100.00;94113.81;2090167;28;20524;-79
2022/01/21 03:41:19;;;;;;;9.52;5.00;;;;;;;-4.76;100.00;94109.19;2082062;28;20021;-79
2022/01/21 03:42:20;;;;;;;10.48;3.67;;;;;;;-4.77;100.00;94117.31;2089960;28;20036;-79
2022/01/21 03:43:21;;;;;;;6.30;3.88;;;;;;;-4.78;100.00;94116.53;2090172;28;20020;-79
2022/01/21 03:44:25;;;;;;;14.90;4.50;;;;;;;-4.78;100.00;94119.16;2090237;28;20016;-80
2022/01/21 03:45:26;;;;;;;15.00;5.07;;;;;;;-4.83;100.00;94120.03;2090321;28;20021;-79
2022/01/21 03:46:27;;;;;;;10.07;3.90;;;;;;;-4.81;100.00;94123.09;2090167;28;20021;-79
2022/01/21 03:47:28;;;;;;;16.70;4.28;;;;;;;-4.85;100.00;94122.16;2090005;28;20024;-78
2022/01/21 03:48:34;;;;;;;13.30;4.53;;;;;;;-4.74;100.00;94114.09;2090023;28;20025;-79
2022/01/21 03:49:49;;;;;;;15.93;4.22;;;;;;;-4.71;100.00;94121.34;2106418;28;20070;-79
2022/01/21 03:50:54;;;;;;;13.50;4.65;;;;;;;-4.82;100.00;94118.19;2091678;28;20052;-81
2022/01/21 03:51:56;;;;;;;13.38;4.15;;;;;;;-4.82;100.00;94124.19;2083013;28;20017;-78
2022/01/21 03:53:02;;;;;;;11.50;4.35;;;;;;;-4.91;100.00;94120.72;2081758;28;20536;-79
2022/01/21 03:54:04;;;;;;;15.55;4.28;;;;;;;-5.01;100.00;94117.53;2083286;28;20028;-80
2022/01/21 03:55:05;;;;;;;12.18;4.35;;;;;;;-5.05;100.00;94114.75;2098338;28;20132;-79
2022/01/21 03:56:06;;;;;;;8.75;3.97;;;;;;;-5.16;100.00;94114.19;2098088;28;20020;-78
2022/01/21 03:57:07;;;;;;;12.40;4.22;;;;;;;-5.11;100.00;94108.88;2097293;28;20027;-79
2022/01/21 03:58:10;;;;;;;11.98;4.07;;;;;;;-5.18;100.00;94113.72;2089938;28;20020;-78
2022/01/21 03:59:11;;;;;;;12.02;3.67;;;;;;;-5.17;100.00;94115.28;2092154;28;20059;-79
2022/01/21 04:00:17;;;;;;;12.05;4.55;;;;;;;-5.18;100.00;94107.72;2081556;28;20028;-78
2022/01/21 04:01:19;;;;;;;10.88;3.88;;;;;;;-5.17;100.00;94111.91;2083189;28;20021;-78
2022/01/21 04:02:20;;;;;;;8.40;3.95;;;;;;;-5.23;100.00;94111.22;2098222;28;20032;-78
2022/01/21 04:03:23;;;;;;;12.23;3.90;;;;;;;-5.29;100.00;94109.78;2106479;28;20046;-80
2022/01/21 04:04:24;;;;;;;15.35;4.07;;;;;;;-5.30;100.00;94110.09;2110626;28;20023;-79
2022/01/21 04:05:27;;;;;;;15.15;4.82;;;;;;;-5.41;100.00;94109.50;2089855;28;20111;-79
2022/01/21 04:06:30;;;;;;;19.55;5.88;;;;;;;-5.52;100.00;94106.31;2090590;28;20024;-79
2022/01/21 04:07:32;;;;;;;14.45;4.65;;;;;;;-5.54;100.00;94112.88;2098561;28;20056;-79
2022/01/21 04:08:38;;;;;;;12.80;3.97;;;;;;;-5.62;100.00;94104.69;2098123;28;20020;-78
2022/01/21 04:09:43;;;;;;;11.70;4.00;;;;;;;-5.55;100.00;94098.31;2098599;28;20036;-79
2022/01/21 04:10:48;;;;;;;14.98;4.35;;;;;;;-5.48;100.00;94103.91;2090455;28;20087;-79
2022/01/21 04:11:54;;;;;;;9.43;3.90;;;;;;;-5.54;100.00;94103.22;2090047;28;20112;-79
2022/01/21 04:12:56;;;;;;;16.48;4.57;;;;;;;-5.62;100.00;94109.09;2083159;28;20145;-78
2022/01/21 04:13:58;;;;;;;16.58;4.07;;;;;;;-5.50;100.00;94106.03;2081701;28;20037;-80
2022/01/21 04:15:01;;;;;;;9.20;4.10;;;;;;;-5.62;100.00;94111.72;2090135;28;20557;-79
2022/01/21 04:16:04;;;;;;;14.90;4.80;;;;;;;-5.61;100.00;94119.25;2090351;28;20055;-78
2022/01/21 04:17:06;;;;;;;15.73;3.92;;;;;;;-5.69;100.00;94114.72;2090099;28;20164;-79
2022/01/21 04:18:07;;;;;;;9.70;4.05;;;;;;;-5.68;100.00;94121.47;2097951;28;20105;-79
2022/01/21 04:19:08;;;;;;;13.32;4.38;;;;;;;-5.59;100.00;94111.13;2087401;28;20517;-78
2022/01/21 04:20:11;;;;;;;9.05;4.13;;;;;;;-5.77;100.00;94104.97;2089567;28;20017;-79
2022/01/21 04:21:12;;;;;;;11.18;4.15;;;;;;;-5.71;100.00;94119.41;2098117;28;20071;-79
2022/01/21 04:22:13;;;;;;;11.48;4.25;;;;;;;-5.68;100.00;94113.66;2081507;28;20025;-79
2022/01/21 04:23:16;;;;;;;8.90;3.90;;;;;;;-5.72;100.00;94119.72;2084674;28;20028;-79
2022/01/21 04:24:17;;;;;;;8.25;3.60;;;;;;;-5.70;100.00;94120.22;2098312;28;20051;-78
2022/01/21 04:25:18;;;;;;;10.75;4.13;;;;;;;-5.79;100.00;94111.50;2098069;28;20128;-80
2022/01/21 04:26:20;;;;;;;10.32;3.97;;;;;;;-5.83;100.00;94116.53;2097922;28;20036;-79
2022/01/21 04:27:21;;;;;;;16.00;4.95;;;;;;;-5.89;100.00;94115.06;2087271;28;20040;-79
2022/01/21 04:28:24;;;;;;;12.25;4.10;;;;;;;-5.79;100.00;94114.09;2106157;28;20034;-79
2022/01/21 04:29:26;;;;;;;9.80;3.95;;;;;;;-5.86;100.00;94117.09;2097833;28;20028;-79
2022/01/21 04:30:27;;;;;;;13.07;4.65;;;;;;;-5.95;100.00;94118.88;2089859;28;20508;-79
2022/01/21 04:31:30;;;;;;;12.18;4.13;;;;;;;-6.06;100.00;94122.69;2097866;28;20823;-79
2022/01/21 04:32:34;;;;;;;12.27;4.15;;;;;;;-6.09;100.00;94119.59;2097987;28;20703;-79
2022/01/21 04:33:39;;;;;;;16.25;4.32;;;;;;;-6.03;100.00;94124.72;2080432;28;20037;-78
2022/01/21 04:34:43;;;;;;;7.75;4.75;;;;;;;-6.04;100.00;94123.94;2089242;28;20067;-79
2022/01/21 04:35:45;;;;;;;13.90;4.78;;;;;;;-6.05;100.00;94124.25;2098442;28;20071;-79
2022/01/21 04:36:47;;;;;;;11.25;4.32;;;;;;;-6.05;100.00;94130.22;2089595;28;20107;-79
2022/01/21 04:37:58;;;;;;;9.85;4.90;;;;;;;-6.11;100.00;94132.13;2098090;28;20021;-79
2022/01/21 04:39:01;;;;;;;13.57;5.90;;;;;;;-5.89;100.00;94128.09;2106346;28;20028;-78
2022/01/21 04:40:12;;;;;;;15.95;5.38;;;;;;;-5.86;100.00;94119.72;2097931;28;20020;-79
2022/01/21 04:47:19;;;;;;;14.95;4.90;;;;;;;-6.24;100.00;94129.47;2100536;28;20056;-79
2022/01/21 04:48:21;;;;;;;12.50;5.28;;;;;;;-6.28;100.00;94126.69;2089410;28;20029;-79
2022/01/21 04:49:22;;;;;;;8.57;4.97;;;;;;;-6.36;100.00;94128.13;2081212;28;20891;-79
2022/01/21 04:50:25;;;;;;;18.27;5.22;;;;;;;-6.37;100.00;94126.56;2097480;28;20091;-79
2022/01/21 04:51:28;;;;;;;13.85;4.88;;;;;;;-6.43;100.00;94119.91;2089699;28;20029;-79
2022/01/21 04:52:29;;;;;;;13.88;5.18;;;;;;;-6.48;100.00;94127.00;2098236;28;20245;-79
2022/01/21 04:53:32;;;;;;;9.63;4.13;;;;;;;-6.50;100.00;94129.13;2097775;28;20477;-78
2022/01/21 04:54:35;;;;;;;10.05;3.75;;;;;;;-6.49;100.00;94125.47;2097938;28;20078;-78
2022/01/21 04:55:36;;;;;;;12.23;4.10;;;;;;;-6.40;100.00;94127.13;2106176;28;20030;-78
2022/01/21 04:56:43;;;;;;;9.70;3.70;;;;;;;-6.41;100.00;94127.41;2097524;28;20093;-79
2022/01/21 04:57:50;;;;;;;14.32;5.18;;;;;;;-6.34;100.00;94136.41;2082869;28;20029;-79
2022/01/21 04:58:56;;;;;;;17.08;4.80;;;;;;;-6.15;100.00;94136.34;2098586;28;20056;-80
2022/01/21 04:59:59;;;;;;;13.48;4.30;;;;;;;-6.29;100.00;94134.78;2097645;28;20036;-79
2022/01/21 05:01:05;;;;;;;8.98;4.03;;;;;;;-6.34;100.00;94133.03;2089926;28;20055;-80
2022/01/21 05:02:12;;;;;;;12.10;3.78;;;;;;;-6.40;100.00;94136.78;2098170;28;20107;-79
2022/01/21 05:03:14;;;;;;;9.32;3.72;;;;;;;-6.49;100.00;94133.28;2098456;28;20066;-79
2022/01/21 05:04:16;;;;;;;7.97;4.07;;;;;;;-6.47;100.00;94144.94;2097896;28;20393;-79
2022/01/21 05:05:17;;;;;;;10.48;3.33;;;;;;;-6.31;100.00;94144.72;2097869;28;20029;-79
2022/01/21 05:06:18;;;;;;;11.35;4.03;;;;;;;-6.41;100.00;94140.41;2097671;28;20140;-78
2022/01/21 05:07:23;;;;;;;6.13;3.65;;;;;;;-6.51;100.00;94156.19;2097562;28;20032;-79
2022/01/21 05:08:31;;;;;;;11.57;4.25;;;;;;;-6.51;100.00;94145.78;2089675;28;20032;-79
2022/01/21 05:09:35;;;;;;;10.48;3.85;;;;;;;-6.54;100.00;94151.53;2091464;28;20029;-79
2022/01/21 05:10:37;;;;;;;10.57;4.55;;;;;;;-6.57;100.00;94155.50;2097468;28;20047;-78
2022/01/21 05:11:38;;;;;;;9.82;4.38;;;;;;;-6.41;100.00;94148.22;2097333;28;20020;-78
2022/01/21 05:12:39;;;;;;;11.00;3.50;;;;;;;-6.35;100.00;94149.69;2097851;28;20107;-79
2022/01/21 05:13:45;;;;;;;10.65;3.40;;;;;;;-6.42;100.00;94150.03;2097428;28;20378;-79
2022/01/21 05:17:04;;;;;;;13.73;3.88;;;;;;;-6.40;100.00;94162.78;2090344;28;20110;-78
2022/01/21 05:18:07;;;;;;;10.30;3.70;;;;;;;-6.47;100.00;94162.34;2089688;28;20061;-78
2022/01/21 05:19:14;;;;;;;9.30;3.83;;;;;;;-6.54;100.00;94162.72;2089146;28;20387;-78
2022/01/21 05:20:16;;;;;;;8.95;3.85;;;;;;;-6.52;100.00;94163.22;2093065;28;20016;-78
2022/01/21 05:21:18;;;;;;;9.05;3.58;;;;;;;-6.49;100.00;94173.06;2097162;28;20167;-79
2022/01/21 05:22:20;;;;;;;12.20;3.63;;;;;;;-6.40;100.00;94162.78;2092672;28;20016;-79
2022/01/21 05:23:22;;;;;;;13.02;3.72;;;;;;;-6.26;100.00;94175.84;2089381;28;20028;-79
2022/01/21 05:24:23;;;;;;;15.07;4.13;;;;;;;-6.25;100.00;94175.53;2081277;28;20125;-79
2022/01/21 05:25:24;;;;;;;10.23;3.10;;;;;;;-6.31;100.00;94176.69;2097630;28;20062;-79
2022/01/21 05:26:35;;;;;;;8.57;3.53;;;;;;;-6.27;100.00;94169.88;2105702;28;20027;-79
2022/01/21 05:27:36;;;;;;;11.45;3.45;;;;;;;-6.16;100.00;94168.63;2090263;28;20036;-79
2022/01/21 05:28:37;;;;;;;7.63;3.42;;;;;;;-6.18;100.00;94165.56;2089109;28;20033;-79
2022/01/21 05:29:38;;;;;;;10.82;5.13;;;;;;;-6.19;100.00;94171.03;2096989;28;20685;-79
2022/01/21 05:30:39;;;;;;;9.82;5.10;;;;;;;-6.12;100.00;94174.03;2088753;28;20021;-80
2022/01/21 05:31:40;;;;;;;10.45;5.07;;;;;;;-6.09;100.00;94169.06;2088827;28;20091;-79
2022/01/21 05:32:41;;;;;;;13.45;6.60;;;;;;;-6.02;100.00;94181.69;2086904;28;20431;-79
2022/01/21 05:33:42;;;;;;;17.50;6.95;;;;;;;-5.97;100.00;94173.00;2088129;28;20378;-79
2022/01/21 05:34:47;;;;;;;17.27;5.95;;;;;;;-5.96;100.00;94180.56;2085009;28;20115;-78
2022/01/21 05:35:48;;;;;;;14.93;6.32;;;;;;;-5.87;100.00;94180.66;2095390;28;20047;-79
2022/01/21 05:36:49;;;;;;;15.23;5.45;;;;;;;-5.83;100.00;94184.22;2095627;28;20025;-77
2022/01/21 05:37:50;;;;;;;11.38;6.65;;;;;;;-5.73;100.00;94185.88;2087744;28;20033;-79
2022/01/21 05:38:51;;;;;;;15.13;5.57;;;;;;;-5.51;100.00;94183.41;2103586;28;20126;-79
2022/01/21 05:39:53;;;;;;;15.20;5.38;;;;;;;-5.40;100.00;94182.16;2092962;28;20029;-78
2022/01/21 05:40:53;;;;;;;11.65;4.65;;;;;;;-5.25;100.00;94185.53;2087676;28;20700;-79
2022/01/21 05:41:55;;;;;;;16.25;7.63;;;;;;;-5.05;100.00;94182.53;2079550;28;20028;-79
2022/01/21 05:42:58;;;;;;;15.40;6.80;;;;;;;-5.27;100.00;94185.81;2088221;28;20032;-79
2022/01/21 05:44:06;;;;;;;17.00;6.93;;;;;;;-5.08;100.00;94181.28;2104316;28;20016;-79